Time;durP1;ratioP1;P1;durP2;ratioP2;P2;SDS_P1;SDS_P2;PMS_P1;PMS_P2;Temp;Humidity;BMP_temperature;BMP_pressure;BME280_temperature;BME280_humidity;BME280_pressure;Samples;Min_cycle;Max_cycle;Signal;HPM_P1;HPM_P2
2024/02/16 00:00:18;;;;;;;27.90;15.20;;;;;;;9.00;100.00;101221.98;105279;1262;98446;-77
2024/02/16 00:03:24;;;;;;;27.50;15.10;;;;;;;9.00;100.00;101219.17;105195;1261;97970;-75
2024/02/16 00:06:10;;;;;;;24.80;14.60;;;;;;;8.99;100.00;101218.70;105085;1262;98531;-77
2024/02/16 00:08:56;;;;;;;26.20;15.90;;;;;;;8.97;100.00;101215.15;105220;1262;101340;-76
2024/02/16 00:11:41;;;;;;;24.20;14.70;;;;;;;8.94;100.00;101216.41;105090;1262;99097;-76
2024/02/16 00:14:27;;;;;;;25.50;15.50;;;;;;;8.89;100.00;101214.48;105092;1260;98422;-77
2024/02/16 00:17:12;;;;;;;24.90;16.00;;;;;;;8.82;100.00;101213.55;105116;1258;97858;-78
2024/02/16 00:19:58;;;;;;;24.90;14.70;;;;;;;8.78;100.00;101214.41;105062;1257;98409;-76
2024/02/16 00:22:44;;;;;;;24.70;15.50;;;;;;;8.75;100.00;101214.91;105132;1262;102129;-75
2024/02/16 00:25:29;;;;;;;27.00;16.50;;;;;;;8.71;100.00;101213.67;105118;1262;100348;-77
2024/02/16 00:28:15;;;;;;;27.10;16.50;;;;;;;8.68;100.00;101213.97;105311;1258;97912;-76
2024/02/16 00:31:02;;;;;;;28.10;17.40;;;;;;;8.67;100.00;101212.32;105022;1257;98054;-75
2024/02/16 00:33:47;;;;;;;28.00;16.70;;;;;;;8.66;100.00;101212.41;105115;1259;98492;-76
2024/02/16 00:36:34;;;;;;;27.40;16.40;;;;;;;8.64;100.00;101213.16;105117;1262;101458;-76
2024/02/16 00:39:20;;;;;;;30.90;17.00;;;;;;;8.61;100.00;101216.23;105056;1259;99094;-77
2024/02/16 00:42:05;;;;;;;24.10;15.80;;;;;;;8.56;100.00;101210.09;105096;1257;98518;-76
2024/02/16 00:44:51;;;;;;;27.20;16.00;;;;;;;8.51;100.00;101211.30;105178;1259;97780;-79
2024/02/16 00:47:37;;;;;;;26.80;16.50;;;;;;;8.48;100.00;101211.69;105294;1257;98571;-77
2024/02/16 00:50:23;;;;;;;28.10;16.10;;;;;;;8.43;100.00;101207.89;105192;1258;102622;-76
2024/02/16 00:53:09;;;;;;;23.20;15.40;;;;;;;8.41;100.00;101206.34;105078;1262;100477;-76
2024/02/16 00:55:54;;;;;;;28.10;15.40;;;;;;;8.40;100.00;101207.70;104994;1262;100121;-77
2024/02/16 00:58:42;;;;;;;26.70;15.90;;;;;;;8.37;100.00;101205.68;105109;1257;98518;-77
2024/02/16 01:01:27;;;;;;;28.10;15.40;;;;;;;8.34;100.00;101205.80;105108;1258;97906;-76
2024/02/16 01:04:13;;;;;;;30.50;18.00;;;;;;;8.31;100.00;101204.31;105029;1257;101356;-76
2024/02/16 01:06:59;;;;;;;28.40;16.40;;;;;;;8.28;100.00;101200.92;105127;1258;100361;-76
2024/02/16 01:09:44;;;;;;;25.10;15.60;;;;;;;8.26;100.00;101201.31;105089;1258;98411;-76
2024/02/16 01:12:31;;;;;;;28.90;17.70;;;;;;;8.25;100.00;101198.23;105017;1262;98649;-77
2024/02/16 01:15:16;;;;;;;24.40;15.70;;;;;;;8.24;100.00;101196.92;105139;1257;97964;-76
2024/02/16 01:18:02;;;;;;;23.30;14.20;;;;;;;8.24;100.00;101200.40;105429;1259;101415;-77
2024/02/16 01:20:47;;;;;;;27.40;16.30;;;;;;;8.25;100.00;101198.77;105109;1258;99165;-75
2024/02/16 01:23:33;;;;;;;25.80;16.20;;;;;;;8.24;100.00;101198.83;105169;1260;97974;-78
2024/02/16 01:26:18;;;;;;;22.20;14.90;;;;;;;8.23;100.00;101200.02;105203;1262;97960;-76
2024/02/16 01:29:05;;;;;;;27.50;15.10;;;;;;;8.22;100.00;101201.55;105141;1257;99659;-77
2024/02/16 01:31:51;;;;;;;27.20;15.60;;;;;;;8.21;100.00;101201.11;105190;1262;101364;-78
2024/02/16 01:34:37;;;;;;;26.40;16.50;;;;;;;8.20;100.00;101202.77;105181;1258;100375;-76
2024/02/16 01:37:22;;;;;;;23.70;14.70;;;;;;;8.21;100.00;101203.77;105034;1257;98476;-75
2024/02/16 01:40:13;;;;;;;24.80;14.60;;;;;;;8.21;100.00;101202.73;105404;1262;147809;-79
2024/02/16 01:42:59;;;;;;;24.40;16.00;;;;;;;8.20;100.00;101208.27;105327;1262;98570;-76
2024/02/16 01:45:45;;;;;;;27.50;15.30;;;;;;;8.20;100.00;101210.61;105077;1263;101347;-76
2024/02/16 01:48:31;;;;;;;31.70;16.50;;;;;;;8.20;100.00;101212.45;105192;1262;99061;-77
2024/02/16 01:51:17;;;;;;;30.20;16.00;;;;;;;8.20;100.00;101213.31;105097;1262;99234;-76
2024/02/16 01:54:03;;;;;;;27.60;15.60;;;;;;;8.21;100.00;101215.36;105403;1262;98072;-75
2024/02/16 01:56:50;;;;;;;22.60;15.20;;;;;;;8.20;100.00;101216.48;105780;1261;98474;-76
2024/02/16 01:59:36;;;;;;;24.00;16.20;;;;;;;8.20;100.00;101209.61;105054;1259;102638;-76
2024/02/16 02:02:22;;;;;;;25.90;15.30;;;;;;;8.20;100.00;101211.23;105161;1257;99162;-78
2024/02/16 02:05:08;;;;;;;32.20;16.10;;;;;;;8.18;100.00;101212.28;105076;1263;97945;-77
2024/02/16 02:07:54;;;;;;;24.00;15.60;;;;;;;8.16;100.00;101207.98;105110;1262;98083;-76
2024/02/16 02:10:39;;;;;;;23.80;14.70;;;;;;;8.17;100.00;101209.60;105117;1261;97989;-76
2024/02/16 02:13:25;;;;;;;25.10;15.50;;;;;;;8.16;100.00;101206.98;105067;1260;101458;-77
2024/02/16 02:16:10;;;;;;;28.60;15.60;;;;;;;8.15;100.00;101204.58;105135;1258;100095;-77
2024/02/16 02:18:56;;;;;;;24.70;15.60;;;;;;;8.14;100.00;101208.57;105107;1259;98516;-76
2024/02/16 02:21:42;;;;;;;24.10;15.40;;;;;;;8.13;100.00;101210.98;105419;1260;97965;-76
2024/02/16 02:24:27;;;;;;;28.60;16.30;;;;;;;8.13;100.00;101212.12;105264;1260;98416;-76
2024/02/16 02:27:13;;;;;;;26.50;16.30;;;;;;;8.11;100.00;101210.31;105203;1258;101312;-76
2024/02/16 02:29:58;;;;;;;25.50;16.90;;;;;;;8.10;100.00;101210.27;105089;1262;99289;-77
2024/02/16 02:32:44;;;;;;;23.50;14.30;;;;;;;8.08;100.00;101209.16;105040;1280;98575;-77
2024/02/16 02:35:29;;;;;;;24.60;16.50;;;;;;;8.07;100.00;101206.81;105094;1259;97984;-75
2024/02/16 02:38:15;;;;;;;25.30;15.60;;;;;;;8.05;100.00;101204.20;105116;1262;99464;-77
2024/02/16 02:41:00;;;;;;;22.70;14.80;;;;;;;8.01;100.00;101199.44;105101;1262;101347;-76
2024/02/16 02:43:46;;;;;;;25.00;15.60;;;;;;;7.99;100.00;101199.48;105139;1259;99187;-76
2024/02/16 02:46:31;;;;;;;26.90;16.60;;;;;;;7.96;100.00;101197.83;105548;1262;97977;-77
2024/02/16 02:49:17;;;;;;;25.00;16.40;;;;;;;7.93;100.00;101195.27;105217;1258;99148;-75
2024/02/16 02:52:04;;;;;;;24.60;15.30;;;;;;;7.90;100.00;101193.23;105215;1262;98493;-76
2024/02/16 02:54:49;;;;;;;25.90;15.30;;;;;;;7.87;100.00;101192.86;105138;1262;101365;-76
2024/02/16 02:57:35;;;;;;;23.60;15.40;;;;;;;7.85;100.00;101192.23;105088;1259;99311;-76
2024/02/16 03:00:21;;;;;;;24.50;15.90;;;;;;;7.82;100.00;101192.89;105211;1260;99104;-76
2024/02/16 03:03:07;;;;;;;26.70;15.60;;;;;;;7.78;100.00;101194.13;105042;1263;97996;-75
2024/02/16 03:05:52;;;;;;;25.50;14.80;;;;;;;7.75;100.00;101194.09;105560;1257;97970;-78
2024/02/16 03:08:38;;;;;;;28.40;15.90;;;;;;;7.72;100.00;101198.48;105514;1258;101539;-76
2024/02/16 03:11:23;;;;;;;23.40;15.10;;;;;;;7.68;99.99;101199.24;105556;1260;99118;-78
2024/02/16 03:14:09;;;;;;;26.10;15.40;;;;;;;7.63;100.00;101198.33;105475;1261;98590;-78
2024/02/16 03:16:54;;;;;;;25.60;15.90;;;;;;;7.58;99.90;101193.17;105479;1262;98015;-77
2024/02/16 03:19:40;;;;;;;24.80;14.80;;;;;;;7.54;99.83;101193.77;105557;1262;98435;-78
2024/02/16 03:22:26;;;;;;;25.10;15.00;;;;;;;7.48;99.93;101192.73;105545;1258;102066;-77
2024/02/16 03:25:11;;;;;;;24.10;14.70;;;;;;;7.44;99.98;101190.73;105277;1257;100359;-77
2024/02/16 03:27:57;;;;;;;24.10;15.90;;;;;;;7.40;99.89;101192.14;105095;1264;98322;-76
2024/02/16 03:30:44;;;;;;;23.80;15.20;;;;;;;7.37;99.90;101192.27;105059;1260;97770;-76
2024/02/16 03:33:29;;;;;;;27.50;15.80;;;;;;;7.32;99.97;101193.48;105059;1260;97869;-77
2024/02/16 03:36:16;;;;;;;27.00;16.00;;;;;;;7.28;100.00;101192.48;105100;1262;101509;-77
2024/02/16 03:39:02;;;;;;;24.00;16.10;;;;;;;7.24;99.92;101189.14;105137;1259;99141;-77
2024/02/16 03:41:48;;;;;;;29.40;15.30;;;;;;;7.19;99.85;101191.92;105051;1262;98916;-76
2024/02/16 03:44:33;;;;;;;27.10;16.00;;;;;;;7.15;99.88;101197.67;105167;1261;99273;-76
2024/02/16 03:47:19;;;;;;;24.00;15.30;;;;;;;7.11;99.75;101196.67;105304;1260;98488;-77
2024/02/16 03:50:06;;;;;;;23.50;15.10;;;;;;;7.07;99.78;101194.72;105125;1259;101396;-76
2024/02/16 03:52:52;;;;;;;23.10;14.60;;;;;;;7.01;99.53;101193.09;105116;1262;100086;-78
2024/02/16 03:55:38;;;;;;;26.50;15.10;;;;;;;6.98;99.61;101189.67;105132;1262;99110;-76
2024/02/16 03:58:24;;;;;;;25.30;16.30;;;;;;;6.95;99.90;101189.81;105098;1262;97963;-77
2024/02/16 04:01:10;;;;;;;28.00;17.00;;;;;;;6.92;99.86;101193.66;105184;1262;98588;-76
2024/02/16 04:03:55;;;;;;;29.00;15.80;;;;;;;6.89;99.93;101194.66;105109;1261;101735;-77
2024/02/16 04:06:41;;;;;;;24.20;15.70;;;;;;;6.86;99.90;101194.45;105203;1259;99732;-77
2024/02/16 04:09:26;;;;;;;28.30;17.20;;;;;;;6.83;99.91;101198.02;105432;1259;97952;-78
2024/02/16 04:12:12;;;;;;;32.80;18.70;;;;;;;6.80;99.98;101198.05;105269;1258;98070;-76
2024/02/16 04:14:58;;;;;;;28.30;16.30;;;;;;;6.77;99.98;101197.45;105082;1262;98472;-76
2024/02/16 04:17:44;;;;;;;32.60;16.90;;;;;;;6.75;99.98;101197.14;105739;1259;102588;-78
2024/02/16 04:20:30;;;;;;;31.90;18.70;;;;;;;6.72;99.98;101194.64;105152;1262;99087;-76
2024/02/16 04:23:15;;;;;;;29.00;18.00;;;;;;;6.68;99.97;101191.46;105095;1260;99248;-76
2024/02/16 04:26:02;;;;;;;30.20;18.20;;;;;;;6.65;100.00;101190.30;105051;1262;98064;-76
2024/02/16 04:28:47;;;;;;;31.00;18.00;;;;;;;6.63;100.00;101189.48;106513;1262;98488;-77
2024/02/16 04:31:33;;;;;;;28.20;17.80;;;;;;;6.60;100.00;101191.52;105099;1262;102227;-76
2024/02/16 04:34:18;;;;;;;29.30;18.20;;;;;;;6.57;99.94;101192.00;105107;1259;99094;-76
2024/02/16 04:37:04;;;;;;;29.30;18.40;;;;;;;6.52;99.97;101191.61;105089;1259;97891;-76
2024/02/16 04:39:49;;;;;;;27.70;17.80;;;;;;;6.48;100.00;101187.69;105136;1262;97936;-78
2024/02/16 04:42:35;;;;;;;26.70;17.70;;;;;;;6.44;99.94;101187.45;105288;1262;99766;-76
2024/02/16 04:45:21;;;;;;;33.00;20.00;;;;;;;6.39;99.95;101185.92;105146;1262;101446;-77
2024/02/16 04:48:07;;;;;;;31.60;19.30;;;;;;;6.33;99.96;101187.36;105247;1258;99326;-76
2024/02/16 04:50:52;;;;;;;23.40;16.30;;;;;;;6.29;100.00;101189.71;105102;1262;97944;-78
2024/02/16 04:53:38;;;;;;;28.10;17.60;;;;;;;6.28;100.00;101188.79;105263;1263;99289;-76
2024/02/16 04:56:23;;;;;;;30.50;16.40;;;;;;;6.27;100.00;101189.09;105131;1262;98401;-77
2024/02/16 04:59:09;;;;;;;27.10;16.50;;;;;;;6.26;100.00;101190.70;105123;1261;102600;-76
2024/02/16 05:01:55;;;;;;;27.90;17.30;;;;;;;6.26;100.00;101189.33;105154;1262;99287;-76
2024/02/16 05:04:41;;;;;;;29.80;17.00;;;;;;;6.24;99.98;101191.04;105515;1262;97912;-84
2024/02/16 05:07:27;;;;;;;29.10;17.70;;;;;;;6.23;100.00;101187.30;106068;1271;97993;-82
2024/02/16 05:10:13;;;;;;;28.20;18.50;;;;;;;6.21;100.00;101188.88;106060;1262;98888;-82
2024/02/16 05:12:59;;;;;;;30.20;18.30;;;;;;;6.18;99.96;101186.48;105962;1257;103150;-77
2024/02/16 05:15:44;;;;;;;30.20;20.00;;;;;;;6.16;100.00;101188.10;105764;1262;100370;-77
2024/02/16 05:18:30;;;;;;;34.40;18.80;;;;;;;6.14;99.97;101188.48;105541;1257;98482;-77
2024/02/16 05:21:16;;;;;;;33.50;20.30;;;;;;;6.10;99.75;101186.01;105096;1262;99142;-77
2024/02/16 05:24:02;;;;;;;32.00;18.20;;;;;;;6.06;99.74;101185.44;105362;1262;98665;-77
2024/02/16 05:26:48;;;;;;;31.10;17.80;;;;;;;6.04;99.84;101187.11;105290;1259;103100;-77
2024/02/16 05:29:34;;;;;;;31.10;19.10;;;;;;;6.03;99.95;101186.02;105156;1259;99131;-76
2024/02/16 05:32:19;;;;;;;29.20;19.50;;;;;;;6.00;99.82;101186.42;105067;1259;98973;-77
2024/02/16 05:35:13;;;;;;;29.70;18.50;;;;;;;5.98;99.81;101181.14;105097;1259;98030;-77
2024/02/16 05:38:00;;;;;;;31.40;19.40;;;;;;;5.97;99.83;101181.81;105361;1262;97986;-77
2024/02/16 05:40:53;;;;;;;31.90;18.20;;;;;;;5.93;99.89;101181.61;106920;1259;101453;-78
2024/02/16 05:43:43;;;;;;;30.20;18.90;;;;;;;5.90;99.84;101185.83;105319;1262;100293;-77
2024/02/16 05:46:28;;;;;;;33.00;18.50;;;;;;;5.87;99.91;101185.02;105398;1260;99391;-77
2024/02/16 05:49:16;;;;;;;33.40;19.90;;;;;;;5.84;99.87;101186.70;105866;1257;97979;-78
2024/02/16 05:52:20;;;;;;;33.50;21.00;;;;;;;5.81;99.75;101189.24;105416;1259;98470;-77
2024/02/16 05:55:07;;;;;;;33.40;19.90;;;;;;;5.79;99.95;101185.05;105468;1260;101408;-78
2024/02/16 05:57:52;;;;;;;32.40;20.60;;;;;;;5.77;99.91;101185.77;105083;1259;100807;-76
2024/02/16 06:00:38;;;;;;;30.50;19.70;;;;;;;5.76;99.87;101189.45;105106;1262;98482;-76
2024/02/16 06:03:23;;;;;;;33.10;20.00;;;;;;;5.74;99.98;101191.91;105159;1262;97994;-77
2024/02/16 06:06:09;;;;;;;32.10;18.60;;;;;;;5.73;99.94;101198.04;105255;1262;97969;-76
2024/02/16 06:08:54;;;;;;;31.90;18.30;;;;;;;5.72;99.97;101202.69;105223;1262;102148;-76
2024/02/16 06:11:40;;;;;;;46.10;23.60;;;;;;;5.71;100.00;101206.03;105172;1259;99288;-76
2024/02/16 06:14:25;;;;;;;91.40;42.90;;;;;;;5.71;100.00;101202.96;105584;1261;98018;-78
2024/02/16 06:17:14;;;;;;;97.20;48.20;;;;;;;5.72;100.00;101207.14;105481;1260;98060;-77
2024/02/16 06:20:00;;;;;;;80.90;38.30;;;;;;;5.73;100.00;101208.84;105083;1262;98215;-76
2024/02/16 06:22:45;;;;;;;67.60;33.20;;;;;;;5.73;100.00;101211.61;105276;1262;101331;-77
2024/02/16 06:25:32;;;;;;;57.80;28.70;;;;;;;5.73;100.00;101214.80;105142;1262;100372;-77
2024/02/16 06:28:17;;;;;;;50.00;26.20;;;;;;;5.73;100.00;101212.54;105088;1262;98850;-76
2024/02/16 06:31:04;;;;;;;43.50;25.50;;;;;;;5.72;100.00;101218.84;105182;1262;99799;-77
2024/02/16 06:33:50;;;;;;;42.60;24.30;;;;;;;5.70;100.00;101221.98;105157;1262;98425;-76
2024/02/16 06:36:35;;;;;;;36.90;21.00;;;;;;;5.70;100.00;101223.29;105123;1274;101359;-75
2024/02/16 06:39:21;;;;;;;40.30;21.90;;;;;;;5.71;100.00;101224.59;105192;1262;100471;-77
2024/02/16 06:42:07;;;;;;;32.70;19.80;;;;;;;5.72;100.00;101221.85;105158;1261;98229;-76
2024/02/16 06:44:52;;;;;;;38.50;22.70;;;;;;;5.73;100.00;101220.70;105099;1262;97989;-78
2024/02/16 06:47:38;;;;;;;35.30;20.90;;;;;;;5.73;100.00;101221.58;105192;1260;98492;-77
2024/02/16 06:50:23;;;;;;;39.20;23.00;;;;;;;5.72;100.00;101222.70;105111;1262;101471;-77
2024/02/16 06:53:09;;;;;;;41.00;23.10;;;;;;;5.73;100.00;101221.77;105108;1259;100545;-76
2024/02/16 06:55:54;;;;;;;42.40;21.00;;;;;;;5.73;100.00;101220.01;105123;1265;98014;-77
2024/02/16 06:58:40;;;;;;;35.70;20.60;;;;;;;5.73;100.00;101219.98;105004;1259;97962;-76
2024/02/16 07:01:27;;;;;;;35.60;20.40;;;;;;;5.74;100.00;101217.94;105218;1260;98180;-78
2024/02/16 07:04:13;;;;;;;33.90;20.40;;;;;;;5.74;100.00;101218.03;105230;1257;101379;-76
2024/02/16 07:06:58;;;;;;;32.60;18.90;;;;;;;5.76;100.00;101217.73;105147;1264;108229;-77
2024/02/16 07:09:44;;;;;;;36.70;22.10;;;;;;;5.78;100.00;101215.76;105121;1271;98983;-76
2024/02/16 07:12:30;;;;;;;37.70;20.90;;;;;;;5.80;100.00;101210.60;105113;1262;99244;-77
2024/02/16 07:15:15;;;;;;;34.90;22.40;;;;;;;5.81;100.00;101214.58;105110;1262;99167;-76
2024/02/16 07:18:03;;;;;;;41.80;23.80;;;;;;;5.84;100.00;101215.09;105067;1262;102650;-76
2024/02/16 07:20:49;;;;;;;41.20;23.00;;;;;;;5.85;100.00;101217.29;105145;1262;99122;-76
2024/02/16 07:23:35;;;;;;;35.70;21.60;;;;;;;5.86;100.00;101218.98;105117;1260;98021;-76
2024/02/16 07:26:21;;;;;;;38.50;21.80;;;;;;;5.88;100.00;101223.71;105183;1262;97878;-76
2024/02/16 07:29:07;;;;;;;37.30;21.50;;;;;;;5.92;100.00;101227.80;105139;1258;98472;-77
2024/02/16 07:31:52;;;;;;;43.00;24.60;;;;;;;5.96;100.00;101229.84;105136;1263;102676;-77
2024/02/16 07:34:38;;;;;;;40.50;23.10;;;;;;;6.01;100.00;101233.70;105133;1262;100452;-77
2024/02/16 07:37:23;;;;;;;39.70;23.40;;;;;;;6.04;100.00;101230.77;105117;1260;99279;-76
2024/02/16 07:40:10;;;;;;;41.10;21.70;;;;;;;6.07;100.00;101231.86;105120;1270;97989;-76
2024/02/16 07:42:55;;;;;;;39.80;23.60;;;;;;;6.10;100.00;101230.38;105114;1263;98480;-76
2024/02/16 07:45:41;;;;;;;45.50;24.20;;;;;;;6.12;100.00;101232.96;105152;1262;101340;-76
2024/02/16 07:48:28;;;;;;;37.50;21.80;;;;;;;6.14;100.00;101237.38;105148;1263;99170;-76
2024/02/16 07:51:13;;;;;;;37.30;21.80;;;;;;;6.17;100.00;101238.95;105067;1263;97970;-75
2024/02/16 07:53:59;;;;;;;40.60;23.40;;;;;;;6.20;100.00;101233.67;105169;1262;98013;-76
2024/02/16 07:56:44;;;;;;;38.20;22.60;;;;;;;6.25;100.00;101231.83;105060;1263;98576;-76
2024/02/16 07:59:30;;;;;;;38.80;21.90;;;;;;;6.30;100.00;101235.74;105157;1264;101349;-76
2024/02/16 08:02:17;;;;;;;37.80;22.40;;;;;;;6.35;100.00;101233.66;105150;1260;99714;-76
2024/02/16 08:05:03;;;;;;;38.00;22.40;;;;;;;6.41;100.00;101232.19;105117;1262;98357;-76
2024/02/16 08:07:49;;;;;;;33.40;19.70;;;;;;;6.47;100.00;101234.70;105129;1262;98585;-77
2024/02/16 08:10:36;;;;;;;41.60;21.10;;;;;;;6.50;100.00;101232.89;105132;1265;99757;-77
2024/02/16 08:13:21;;;;;;;35.50;20.90;;;;;;;6.56;100.00;101232.14;105173;1264;101347;-77
2024/02/16 08:16:07;;;;;;;35.20;20.60;;;;;;;6.64;100.00;101228.94;105127;1260;100421;-77
2024/02/16 08:18:52;;;;;;;39.40;22.20;;;;;;;6.72;100.00;101228.71;105108;1262;99502;-77
2024/02/16 08:21:38;;;;;;;30.90;19.60;;;;;;;6.79;100.00;101231.91;105171;1257;99135;-76
2024/02/16 08:24:23;;;;;;;35.90;21.20;;;;;;;6.87;100.00;101228.45;105148;1262;100793;-77
2024/02/16 08:27:09;;;;;;;32.30;20.40;;;;;;;6.95;100.00;101226.65;105101;1264;101378;-77
2024/02/16 08:29:55;;;;;;;40.30;24.70;;;;;;;7.03;100.00;101227.61;105052;1267;100373;-76
2024/02/16 08:32:40;;;;;;;36.50;21.20;;;;;;;7.12;100.00;101230.84;105169;1263;98893;-76
2024/02/16 08:35:26;;;;;;;37.30;21.50;;;;;;;7.19;100.00;101226.36;105043;1257;98625;-77
2024/02/16 08:38:11;;;;;;;37.90;20.80;;;;;;;7.28;100.00;101223.20;105111;1262;98711;-75
2024/02/16 08:40:57;;;;;;;39.10;21.20;;;;;;;7.36;100.00;101225.72;105086;1263;102316;-76
2024/02/16 08:43:43;;;;;;;37.50;20.60;;;;;;;7.45;100.00;101224.30;105111;1267;100331;-77
2024/02/16 08:46:29;;;;;;;34.70;19.80;;;;;;;7.53;100.00;101223.85;105103;1271;98418;-77
2024/02/16 08:49:16;;;;;;;34.00;23.00;;;;;;;7.61;100.00;101219.80;105123;1257;99254;-76
2024/02/16 08:52:02;;;;;;;37.80;22.20;;;;;;;7.71;100.00;101220.95;105296;1257;97942;-76
2024/02/16 08:54:47;;;;;;;38.00;21.20;;;;;;;7.81;100.00;101217.88;105143;1257;103011;-76
2024/02/16 08:57:33;;;;;;;36.80;21.40;;;;;;;7.90;100.00;101216.19;105229;1263;100341;-76
2024/02/16 09:00:19;;;;;;;35.00;19.60;;;;;;;7.99;100.00;101216.50;105175;1262;99049;-76
2024/02/16 09:03:06;;;;;;;36.80;20.80;;;;;;;8.09;100.00;101213.05;105115;1257;97965;-77
2024/02/16 09:05:52;;;;;;;37.00;20.70;;;;;;;8.18;100.00;101209.63;105116;1257;98411;-76
2024/02/16 09:08:37;;;;;;;31.90;18.50;;;;;;;8.29;100.00;101206.33;105064;1266;102650;-76
2024/02/16 09:11:23;;;;;;;32.80;19.00;;;;;;;8.40;100.00;101203.99;105242;1262;100392;-77
2024/02/16 09:14:09;;;;;;;32.90;18.40;;;;;;;8.50;100.00;101200.75;105194;1262;98781;-76
2024/02/16 09:16:54;;;;;;;34.40;18.70;;;;;;;8.60;100.00;101201.84;105275;1263;98597;-77
2024/02/16 09:19:39;;;;;;;33.60;18.90;;;;;;;8.68;100.00;101203.21;105109;1271;97883;-77
2024/02/16 09:22:25;;;;;;;31.40;17.50;;;;;;;8.75;100.00;101202.08;105548;1257;101401;-78
2024/02/16 09:25:11;;;;;;;36.80;18.80;;;;;;;8.82;100.00;101201.84;105191;1263;100325;-76
2024/02/16 09:27:56;;;;;;;29.20;16.90;;;;;;;8.90;100.00;101201.20;105159;1258;99164;-75
2024/02/16 09:30:42;;;;;;;28.70;16.90;;;;;;;8.98;100.00;101201.30;105052;1257;97964;-77
2024/02/16 09:33:28;;;;;;;29.20;16.90;;;;;;;9.07;100.00;101206.41;105248;1263;97873;-78
2024/02/16 09:36:13;;;;;;;28.90;16.10;;;;;;;9.16;100.00;101203.57;105572;1262;102608;-78
2024/02/16 09:38:59;;;;;;;29.00;16.30;;;;;;;9.23;100.00;101203.09;105544;1262;99167;-78
2024/02/16 09:41:49;;;;;;;30.20;16.60;;;;;;;9.32;100.00;101200.57;105323;1258;98015;-77
2024/02/16 09:44:36;;;;;;;27.40;15.30;;;;;;;9.43;100.00;101198.00;105119;1264;97980;-77
2024/02/16 09:47:24;;;;;;;36.10;16.60;;;;;;;9.52;99.93;101199.53;105128;1266;98509;-77
2024/02/16 09:50:10;;;;;;;23.80;16.00;;;;;;;9.61;99.70;101203.66;105240;1258;102695;-77
2024/02/16 09:52:57;;;;;;;33.20;19.50;;;;;;;9.68;99.45;101202.15;105213;1262;99102;-76
2024/02/16 09:55:43;;;;;;;51.50;28.60;;;;;;;9.75;99.48;101203.69;105331;1258;97976;-76
2024/02/16 09:58:29;;;;;;;27.90;17.50;;;;;;;9.84;99.67;101199.14;105091;1271;98046;-77
2024/02/16 10:01:21;;;;;;;25.20;17.20;;;;;;;9.94;99.57;101197.10;105122;1263;99687;-76
2024/02/16 10:04:08;;;;;;;22.20;14.60;;;;;;;10.03;99.14;101192.39;105086;1262;102011;-75
2024/02/16 10:06:53;;;;;;;25.90;15.90;;;;;;;10.14;98.93;101189.09;105129;1257;100629;-78
2024/02/16 10:09:40;;;;;;;36.50;23.40;;;;;;;10.21;98.83;101191.09;105271;1257;97989;-77
2024/02/16 10:12:26;;;;;;;26.60;19.40;;;;;;;10.29;98.51;101187.55;105090;1261;99275;-76
2024/02/16 10:15:11;;;;;;;27.50;16.20;;;;;;;10.37;98.41;101181.27;105074;1263;97970;-76
2024/02/16 10:18:05;;;;;;;23.30;14.20;;;;;;;10.45;98.19;101177.51;105122;1257;101372;-76
2024/02/16 10:20:50;;;;;;;20.90;13.50;;;;;;;10.53;98.02;101175.90;105047;1257;99294;-76
2024/02/16 10:23:36;;;;;;;24.20;14.70;;;;;;;10.60;98.12;101172.39;105260;1262;98980;-75
2024/02/16 10:26:22;;;;;;;22.40;13.60;;;;;;;10.66;98.26;101168.83;105202;1258;98025;-75
2024/02/16 10:29:10;;;;;;;21.40;13.30;;;;;;;10.73;98.20;101162.52;105120;1262;98511;-77
2024/02/16 10:31:56;;;;;;;22.00;14.10;;;;;;;10.80;97.91;101159.73;105180;1262;101329;-76
2024/02/16 10:34:45;;;;;;;25.40;14.70;;;;;;;10.88;97.69;101154.33;105142;1257;100198;-77
2024/02/16 10:37:31;;;;;;;23.30;12.60;;;;;;;10.96;97.66;101151.89;106028;1258;100146;-76
2024/02/16 10:40:19;;;;;;;22.80;12.00;;;;;;;11.02;97.78;101144.04;105135;1258;97984;-77
2024/02/16 10:43:06;;;;;;;18.00;11.10;;;;;;;11.07;97.72;101138.00;105080;1257;98508;-76
2024/02/16 10:45:53;;;;;;;20.60;11.70;;;;;;;11.14;97.19;101139.50;105111;1258;101567;-76
2024/02/16 10:48:39;;;;;;;19.90;11.90;;;;;;;11.21;96.99;101135.88;105074;1258;100476;-77
2024/02/16 10:51:47;;;;;;;16.90;10.50;;;;;;;11.26;97.10;101132.36;105130;1257;98478;-77
2024/02/16 10:54:34;;;;;;;21.20;12.00;;;;;;;11.34;96.77;101128.05;105100;1261;98014;-77
2024/02/16 10:57:23;;;;;;;19.40;12.30;;;;;;;11.42;96.76;101122.30;105123;1258;98399;-77
2024/02/16 11:00:12;;;;;;;20.30;11.30;;;;;;;11.50;96.80;101114.50;105117;1271;102452;-76
2024/02/16 11:02:59;;;;;;;18.30;12.50;;;;;;;11.56;96.63;101111.84;105063;1263;99913;-76
2024/02/16 11:05:46;;;;;;;20.40;11.40;;;;;;;11.63;96.26;101110.30;105347;1271;98104;-77
2024/02/16 11:08:38;;;;;;;16.50;10.80;;;;;;;11.70;95.88;101107.55;105061;1264;97936;-77
2024/02/16 11:11:23;;;;;;;19.70;11.80;;;;;;;11.74;95.96;101100.04;106373;1261;98415;-78
2024/02/16 11:14:16;;;;;;;19.80;12.40;;;;;;;11.80;96.09;101094.74;105080;1258;101966;-77
2024/02/16 11:17:02;;;;;;;19.70;11.60;;;;;;;11.85;95.98;101092.31;105148;1263;100065;-77
2024/02/16 11:19:49;;;;;;;21.50;11.60;;;;;;;11.90;95.71;101085.54;105156;1262;98078;-77
2024/02/16 11:22:37;;;;;;;18.90;11.80;;;;;;;11.96;95.42;101082.20;105036;1271;99272;-77
2024/02/16 11:25:33;;;;;;;19.90;10.80;;;;;;;12.00;95.30;101078.67;105035;1264;98541;-77
2024/02/16 11:28:20;;;;;;;16.90;11.70;;;;;;;12.05;94.99;101074.42;105114;1264;101368;-77
2024/02/16 11:31:07;;;;;;;18.60;11.10;;;;;;;12.12;95.07;101067.16;105112;1257;100256;-77
2024/02/16 11:33:52;;;;;;;18.20;11.40;;;;;;;12.18;94.98;101062.09;105338;1261;99080;-77
2024/02/16 11:36:38;;;;;;;19.10;11.60;;;;;;;12.23;94.89;101055.73;105428;1261;98855;-77
2024/02/16 11:39:25;;;;;;;19.50;11.50;;;;;;;12.29;94.79;101050.49;105194;1262;97930;-77
2024/02/16 11:42:13;;;;;;;19.30;12.00;;;;;;;12.36;94.65;101047.69;105156;1257;102372;-77
2024/02/16 11:44:59;;;;;;;19.00;11.30;;;;;;;12.41;94.25;101041.27;105156;1257;99272;-77
2024/02/16 11:47:44;;;;;;;16.90;11.00;;;;;;;12.44;94.39;101040.67;105140;1257;99466;-78
2024/02/16 11:50:29;;;;;;;16.70;10.60;;;;;;;12.49;94.54;101037.69;105117;1257;99142;-76
2024/02/16 11:53:19;;;;;;;14.70;9.50;;;;;;;12.54;94.27;101032.38;105197;1262;97982;-76
2024/02/16 11:56:05;;;;;;;15.90;9.10;;;;;;;12.59;94.30;101035.08;105175;1258;103007;-77
2024/02/16 11:58:55;;;;;;;13.70;9.00;;;;;;;12.61;93.94;101027.36;105171;1273;99126;-77
2024/02/16 12:01:51;;;;;;;15.30;9.40;;;;;;;12.64;94.08;101021.81;105544;1270;98678;-77
2024/02/16 12:04:37;;;;;;;14.40;9.40;;;;;;;12.66;93.92;101026.42;104991;1257;98044;-77
2024/02/16 12:07:26;;;;;;;14.40;9.80;;;;;;;12.69;93.56;101022.81;105222;1257;98526;-77
2024/02/16 12:10:11;;;;;;;15.30;9.60;;;;;;;12.72;93.36;101022.61;105106;1257;101950;-76
2024/02/16 12:12:58;;;;;;;13.70;9.60;;;;;;;12.75;93.26;101020.25;105242;1261;99749;-77
2024/02/16 12:15:47;;;;;;;14.30;9.20;;;;;;;12.79;93.01;101020.80;105081;1262;97940;-77
2024/02/16 12:18:33;;;;;;;15.30;9.40;;;;;;;12.84;92.90;101018.27;105116;1257;99218;-78
2024/02/16 12:21:22;;;;;;;19.90;9.60;;;;;;;12.89;92.76;101015.96;105171;1262;98444;-77
2024/02/16 12:24:07;;;;;;;14.90;9.50;;;;;;;12.93;92.30;101014.93;105063;1264;110075;-77
2024/02/16 12:26:53;;;;;;;13.60;9.10;;;;;;;12.97;92.21;101014.84;105094;1258;100359;-77